sensor_id;sensor_type;location;lat;lon;timestamp;P1;durP1;ratioP1;P2;durP2;ratioP2
313;SDS011;143;51.634;7.112;2023-04-01T00:00:25;5.40;;;2.20;;
313;SDS011;143;51.634;7.112;2023-04-01T00:02:50;6.23;;;1.60;;
313;SDS011;143;51.634;7.112;2023-04-01T00:05:16;14.87;;;2.20;;
313;SDS011;143;51.634;7.112;2023-04-01T00:07:42;4.93;;;2.63;;
313;SDS011;143;51.634;7.112;2023-04-01T00:10:09;6.70;;;1.87;;
313;SDS011;143;51.634;7.112;2023-04-01T00:12:36;8.33;;;2.30;;
313;SDS011;143;51.634;7.112;2023-04-01T00:15:03;6.13;;;1.73;;
313;SDS011;143;51.634;7.112;2023-04-01T00:17:30;8.30;;;2.30;;
313;SDS011;143;51.634;7.112;2023-04-01T00:19:56;6.67;;;2.30;;
313;SDS011;143;51.634;7.112;2023-04-01T00:22:23;11.63;;;2.77;;
313;SDS011;143;51.634;7.112;2023-04-01T00:24:49;6.80;;;2.90;;
313;SDS011;143;51.634;7.112;2023-04-01T00:27:15;5.73;;;2.67;;
313;SDS011;143;51.634;7.112;2023-04-01T00:29:45;17.60;;;4.83;;
313;SDS011;143;51.634;7.112;2023-04-01T00:32:13;9.50;;;2.90;;
313;SDS011;143;51.634;7.112;2023-04-01T00:34:39;8.67;;;3.07;;
313;SDS011;143;51.634;7.112;2023-04-01T00:37:06;7.80;;;2.80;;
313;SDS011;143;51.634;7.112;2023-04-01T00:39:33;11.53;;;3.00;;
313;SDS011;143;51.634;7.112;2023-04-01T00:42:00;8.83;;;2.67;;
313;SDS011;143;51.634;7.112;2023-04-01T00:44:27;7.47;;;3.00;;
313;SDS011;143;51.634;7.112;2023-04-01T00:46:54;10.27;;;2.63;;
313;SDS011;143;51.634;7.112;2023-04-01T00:49:25;7.10;;;3.00;;
313;SDS011;143;51.634;7.112;2023-04-01T00:51:55;6.90;;;2.87;;
313;SDS011;143;51.634;7.112;2023-04-01T00:54:25;5.33;;;3.43;;
313;SDS011;143;51.634;7.112;2023-04-01T00:56:54;4.87;;;2.73;;
313;SDS011;143;51.634;7.112;2023-04-01T00:59:34;3.43;;;2.20;;
313;SDS011;143;51.634;7.112;2023-04-01T01:02:10;7.50;;;2.90;;
313;SDS011;143;51.634;7.112;2023-04-01T01:04:37;6.70;;;2.87;;
313;SDS011;143;51.634;7.112;2023-04-01T01:10:41;5.87;;;2.60;;
313;SDS011;143;51.634;7.112;2023-04-01T01:12:44;8.13;;;2.57;;
313;SDS011;143;51.634;7.112;2023-04-01T01:23:20;4.23;;;2.00;;
313;SDS011;143;51.634;7.112;2023-04-01T01:29:04;4.67;;;2.53;;
313;SDS011;143;51.634;7.112;2023-04-01T01:37:20;7.90;;;3.00;;
313;SDS011;143;51.634;7.112;2023-04-01T01:39:54;5.43;;;2.53;;
313;SDS011;143;51.634;7.112;2023-04-01T01:42:23;7.63;;;3.43;;
313;SDS011;143;51.634;7.112;2023-04-01T01:44:52;7.87;;;3.10;;
313;SDS011;143;51.634;7.112;2023-04-01T01:47:20;9.37;;;2.73;;
313;SDS011;143;51.634;7.112;2023-04-01T01:49:48;6.90;;;2.43;;
313;SDS011;143;51.634;7.112;2023-04-01T01:52:16;4.00;;;2.60;;
313;SDS011;143;51.634;7.112;2023-04-01T01:54:51;8.23;;;3.07;;
313;SDS011;143;51.634;7.112;2023-04-01T01:57:20;7.97;;;2.63;;
313;SDS011;143;51.634;7.112;2023-04-01T01:59:49;2.47;;;2.03;;
313;SDS011;143;51.634;7.112;2023-04-01T02:02:19;4.53;;;2.60;;
313;SDS011;143;51.634;7.112;2023-04-01T02:04:47;5.60;;;2.17;;
313;SDS011;143;51.634;7.112;2023-04-01T02:07:20;5.70;;;2.27;;
313;SDS011;143;51.634;7.112;2023-04-01T02:09:50;4.70;;;2.23;;
313;SDS011;143;51.634;7.112;2023-04-01T02:12:16;4.47;;;1.93;;
313;SDS011;143;51.634;7.112;2023-04-01T02:14:54;4.17;;;1.90;;
313;SDS011;143;51.634;7.112;2023-04-01T02:17:27;3.43;;;2.00;;
313;SDS011;143;51.634;7.112;2023-04-01T02:22:31;3.00;;;2.10;;
313;SDS011;143;51.634;7.112;2023-04-01T02:25:04;7.83;;;2.20;;
313;SDS011;143;51.634;7.112;2023-04-01T02:27:33;3.70;;;1.80;;
313;SDS011;143;51.634;7.112;2023-04-01T02:29:59;3.40;;;2.23;;
313;SDS011;143;51.634;7.112;2023-04-01T02:32:24;4.63;;;2.70;;
313;SDS011;143;51.634;7.112;2023-04-01T02:34:52;5.73;;;2.80;;
313;SDS011;143;51.634;7.112;2023-04-01T02:37:18;4.07;;;2.63;;
313;SDS011;143;51.634;7.112;2023-04-01T02:39:44;7.50;;;2.77;;
313;SDS011;143;51.634;7.112;2023-04-01T02:42:10;3.73;;;2.60;;
313;SDS011;143;51.634;7.112;2023-04-01T02:44:36;4.70;;;2.60;;
313;SDS011;143;51.634;7.112;2023-04-01T02:47:02;6.97;;;3.23;;
313;SDS011;143;51.634;7.112;2023-04-01T02:49:27;9.63;;;3.83;;
313;SDS011;143;51.634;7.112;2023-04-01T02:51:53;4.50;;;2.93;;
313;SDS011;143;51.634;7.112;2023-04-01T02:54:19;6.37;;;2.87;;
313;SDS011;143;51.634;7.112;2023-04-01T02:56:45;7.63;;;3.57;;
313;SDS011;143;51.634;7.112;2023-04-01T02:59:11;4.77;;;3.23;;
313;SDS011;143;51.634;7.112;2023-04-01T03:01:36;6.27;;;3.60;;
313;SDS011;143;51.634;7.112;2023-04-01T03:04:03;9.67;;;3.30;;
313;SDS011;143;51.634;7.112;2023-04-01T03:06:29;3.60;;;2.93;;
313;SDS011;143;51.634;7.112;2023-04-01T03:08:55;5.97;;;3.57;;
313;SDS011;143;51.634;7.112;2023-04-01T03:11:21;7.53;;;4.27;;
313;SDS011;143;51.634;7.112;2023-04-01T03:13:47;6.90;;;3.83;;
313;SDS011;143;51.634;7.112;2023-04-01T03:16:13;6.57;;;3.70;;
313;SDS011;143;51.634;7.112;2023-04-01T03:18:39;5.80;;;2.87;;
313;SDS011;143;51.634;7.112;2023-04-01T03:21:18;11.10;;;3.50;;
313;SDS011;143;51.634;7.112;2023-04-01T03:23:48;5.70;;;3.60;;
313;SDS011;143;51.634;7.112;2023-04-01T03:26:14;5.67;;;3.30;;
313;SDS011;143;51.634;7.112;2023-04-01T03:28:40;4.67;;;3.47;;
313;SDS011;143;51.634;7.112;2023-04-01T03:31:06;6.37;;;3.33;;
313;SDS011;143;51.634;7.112;2023-04-01T03:33:32;4.23;;;2.60;;
313;SDS011;143;51.634;7.112;2023-04-01T03:35:58;10.27;;;3.33;;
313;SDS011;143;51.634;7.112;2023-04-01T03:38:24;4.20;;;2.70;;
313;SDS011;143;51.634;7.112;2023-04-01T03:40:50;6.50;;;2.97;;
313;SDS011;143;51.634;7.112;2023-04-01T03:43:15;6.90;;;3.43;;
313;SDS011;143;51.634;7.112;2023-04-01T03:45:48;7.90;;;4.10;;
313;SDS011;143;51.634;7.112;2023-04-01T03:48:15;5.43;;;3.53;;
313;SDS011;143;51.634;7.112;2023-04-01T03:50:41;9.60;;;3.50;;
313;SDS011;143;51.634;7.112;2023-04-01T03:53:07;7.13;;;2.90;;
313;SDS011;143;51.634;7.112;2023-04-01T03:55:33;6.00;;;3.30;;
313;SDS011;143;51.634;7.112;2023-04-01T03:58:00;5.40;;;2.93;;
313;SDS011;143;51.634;7.112;2023-04-01T04:00:27;3.77;;;2.80;;
313;SDS011;143;51.634;7.112;2023-04-01T04:02:53;5.77;;;2.80;;
313;SDS011;143;51.634;7.112;2023-04-01T04:05:21;6.87;;;4.10;;
313;SDS011;143;51.634;7.112;2023-04-01T04:07:48;4.87;;;3.47;;
313;SDS011;143;51.634;7.112;2023-04-01T04:10:14;8.50;;;4.90;;
313;SDS011;143;51.634;7.112;2023-04-01T04:12:39;5.80;;;3.27;;
313;SDS011;143;51.634;7.112;2023-04-01T04:15:05;5.30;;;3.90;;
313;SDS011;143;51.634;7.112;2023-04-01T04:17:32;7.67;;;4.60;;
313;SDS011;143;51.634;7.112;2023-04-01T04:19:58;7.83;;;4.97;;
313;SDS011;143;51.634;7.112;2023-04-01T04:22:23;11.47;;;6.07;;
313;SDS011;143;51.634;7.112;2023-04-01T04:24:49;7.87;;;5.43;;
313;SDS011;143;51.634;7.112;2023-04-01T04:27:15;10.83;;;5.80;;
313;SDS011;143;51.634;7.112;2023-04-01T04:29:41;10.53;;;5.30;;
313;SDS011;143;51.634;7.112;2023-04-01T04:32:06;6.93;;;5.23;;
313;SDS011;143;51.634;7.112;2023-04-01T04:34:32;6.93;;;5.50;;
313;SDS011;143;51.634;7.112;2023-04-01T04:36:58;9.00;;;5.57;;
313;SDS011;143;51.634;7.112;2023-04-01T04:39:23;9.47;;;5.73;;
313;SDS011;143;51.634;7.112;2023-04-01T04:41:49;9.00;;;6.40;;
313;SDS011;143;51.634;7.112;2023-04-01T04:44:15;10.17;;;5.83;;
313;SDS011;143;51.634;7.112;2023-04-01T04:46:41;8.90;;;6.17;;
313;SDS011;143;51.634;7.112;2023-04-01T04:49:06;10.70;;;5.73;;
313;SDS011;143;51.634;7.112;2023-04-01T04:51:32;10.60;;;6.23;;
313;SDS011;143;51.634;7.112;2023-04-01T04:54:00;10.57;;;5.67;;
313;SDS011;143;51.634;7.112;2023-04-01T04:56:26;10.43;;;6.20;;
313;SDS011;143;51.634;7.112;2023-04-01T04:58:52;10.50;;;6.47;;
313;SDS011;143;51.634;7.112;2023-04-01T05:01:18;10.40;;;6.47;;
313;SDS011;143;51.634;7.112;2023-04-01T05:03:44;9.27;;;6.00;;
313;SDS011;143;51.634;7.112;2023-04-01T05:06:11;10.97;;;6.03;;
313;SDS011;143;51.634;7.112;2023-04-01T05:08:39;9.53;;;6.40;;
313;SDS011;143;51.634;7.112;2023-04-01T05:11:06;14.13;;;7.43;;
313;SDS011;143;51.634;7.112;2023-04-01T05:13:37;11.00;;;6.50;;
313;SDS011;143;51.634;7.112;2023-04-01T05:16:03;12.80;;;8.10;;
313;SDS011;143;51.634;7.112;2023-04-01T05:18:32;13.50;;;6.40;;
313;SDS011;143;51.634;7.112;2023-04-01T05:20:58;15.87;;;6.73;;
313;SDS011;143;51.634;7.112;2023-04-01T05:23:23;10.13;;;6.50;;
313;SDS011;143;51.634;7.112;2023-04-01T05:25:49;14.00;;;6.00;;
313;SDS011;143;51.634;7.112;2023-04-01T05:28:17;8.67;;;6.27;;
313;SDS011;143;51.634;7.112;2023-04-01T05:30:43;9.37;;;6.53;;
313;SDS011;143;51.634;7.112;2023-04-01T05:33:10;9.20;;;5.80;;
313;SDS011;143;51.634;7.112;2023-04-01T05:35:37;8.60;;;5.30;;
313;SDS011;143;51.634;7.112;2023-04-01T05:38:03;6.80;;;4.63;;
313;SDS011;143;51.634;7.112;2023-04-01T05:40:29;9.30;;;4.63;;
313;SDS011;143;51.634;7.112;2023-04-01T05:42:55;9.57;;;5.37;;
313;SDS011;143;51.634;7.112;2023-04-01T05:45:21;9.03;;;5.03;;
313;SDS011;143;51.634;7.112;2023-04-01T05:47:47;7.00;;;4.13;;
313;SDS011;143;51.634;7.112;2023-04-01T05:50:13;6.97;;;5.10;;
313;SDS011;143;51.634;7.112;2023-04-01T05:52:38;9.20;;;5.13;;
313;SDS011;143;51.634;7.112;2023-04-01T05:55:04;10.60;;;5.70;;
313;SDS011;143;51.634;7.112;2023-04-01T05:57:31;9.13;;;4.80;;
313;SDS011;143;51.634;7.112;2023-04-01T05:59:56;9.50;;;5.80;;
313;SDS011;143;51.634;7.112;2023-04-01T06:02:22;9.17;;;4.80;;
313;SDS011;143;51.634;7.112;2023-04-01T06:04:48;9.60;;;6.07;;
313;SDS011;143;51.634;7.112;2023-04-01T06:07:15;9.00;;;5.77;;
313;SDS011;143;51.634;7.112;2023-04-01T06:09:43;6.17;;;5.00;;
313;SDS011;143;51.634;7.112;2023-04-01T06:26:30;11.40;;;5.67;;
313;SDS011;143;51.634;7.112;2023-04-01T06:31:37;6.97;;;5.20;;
313;SDS011;143;51.634;7.112;2023-04-01T06:47:32;7.27;;;5.40;;
313;SDS011;143;51.634;7.112;2023-04-01T06:55:46;7.30;;;5.00;;
313;SDS011;143;51.634;7.112;2023-04-01T06:58:22;8.93;;;5.67;;
313;SDS011;143;51.634;7.112;2023-04-01T07:00:53;7.20;;;4.90;;
313;SDS011;143;51.634;7.112;2023-04-01T07:06:14;6.23;;;4.80;;
313;SDS011;143;51.634;7.112;2023-04-01T07:08:48;10.90;;;5.27;;
313;SDS011;143;51.634;7.112;2023-04-01T07:11:20;7.10;;;5.10;;
313;SDS011;143;51.634;7.112;2023-04-01T07:14:01;8.60;;;5.77;;
313;SDS011;143;51.634;7.112;2023-04-01T07:19:51;7.90;;;6.03;;
313;SDS011;143;51.634;7.112;2023-04-01T07:22:35;10.33;;;6.80;;
313;SDS011;143;51.634;7.112;2023-04-01T07:25:11;8.67;;;5.80;;
313;SDS011;143;51.634;7.112;2023-04-01T07:27:38;13.03;;;6.60;;
313;SDS011;143;51.634;7.112;2023-04-01T07:30:06;8.63;;;6.40;;
313;SDS011;143;51.634;7.112;2023-04-01T07:32:43;8.30;;;5.63;;
313;SDS011;143;51.634;7.112;2023-04-01T07:35:45;9.40;;;6.27;;
313;SDS011;143;51.634;7.112;2023-04-01T07:47:10;7.63;;;6.00;;
313;SDS011;143;51.634;7.112;2023-04-01T07:50:02;11.43;;;6.10;;
313;SDS011;143;51.634;7.112;2023-04-01T07:55:38;6.83;;;5.60;;
313;SDS011;143;51.634;7.112;2023-04-01T08:01:05;8.50;;;5.60;;
313;SDS011;143;51.634;7.112;2023-04-01T08:06:52;10.17;;;6.10;;
313;SDS011;143;51.634;7.112;2023-04-01T08:12:14;12.57;;;8.00;;
313;SDS011;143;51.634;7.112;2023-04-01T08:17:33;19.43;;;8.37;;
313;SDS011;143;51.634;7.112;2023-04-01T08:20:08;12.10;;;8.00;;
313;SDS011;143;51.634;7.112;2023-04-01T08:23:00;10.60;;;7.07;;
313;SDS011;143;51.634;7.112;2023-04-01T08:25:37;13.40;;;7.40;;
313;SDS011;143;51.634;7.112;2023-04-01T08:28:10;11.33;;;7.50;;
313;SDS011;143;51.634;7.112;2023-04-01T08:30:53;11.77;;;7.80;;
313;SDS011;143;51.634;7.112;2023-04-01T08:33:27;11.27;;;7.17;;
313;SDS011;143;51.634;7.112;2023-04-01T08:38:31;10.17;;;7.20;;
313;SDS011;143;51.634;7.112;2023-04-01T08:52:41;14.10;;;9.63;;
313;SDS011;143;51.634;7.112;2023-04-01T09:00:57;13.30;;;8.80;;
313;SDS011;143;51.634;7.112;2023-04-01T09:21:00;16.17;;;8.63;;
313;SDS011;143;51.634;7.112;2023-04-01T09:38:20;11.50;;;6.80;;
313;SDS011;143;51.634;7.112;2023-04-01T09:52:51;13.57;;;7.33;;
313;SDS011;143;51.634;7.112;2023-04-01T10:09:57;7.43;;;3.87;;
313;SDS011;143;51.634;7.112;2023-04-01T10:12:59;8.73;;;5.47;;
313;SDS011;143;51.634;7.112;2023-04-01T10:27:16;5.47;;;3.83;;
313;SDS011;143;51.634;7.112;2023-04-01T10:49:41;5.57;;;3.60;;
313;SDS011;143;51.634;7.112;2023-04-01T11:04:24;4.40;;;3.00;;
313;SDS011;143;51.634;7.112;2023-04-01T11:46:12;6.30;;;3.93;;
313;SDS011;143;51.634;7.112;2023-04-01T12:01:06;8.70;;;4.30;;
313;SDS011;143;51.634;7.112;2023-04-01T12:14:36;7.30;;;4.40;;
313;SDS011;143;51.634;7.112;2023-04-01T12:17:10;6.60;;;4.10;;
313;SDS011;143;51.634;7.112;2023-04-01T12:41:09;5.73;;;4.07;;
313;SDS011;143;51.634;7.112;2023-04-01T12:43:58;7.80;;;4.93;;
313;SDS011;143;51.634;7.112;2023-04-01T13:03:37;9.43;;;5.20;;
313;SDS011;143;51.634;7.112;2023-04-01T13:06:18;8.10;;;5.20;;
313;SDS011;143;51.634;7.112;2023-04-01T13:09:01;8.37;;;4.70;;
313;SDS011;143;51.634;7.112;2023-04-01T13:14:30;7.70;;;5.17;;
313;SDS011;143;51.634;7.112;2023-04-01T13:20:02;8.03;;;4.83;;
313;SDS011;143;51.634;7.112;2023-04-01T13:25:40;9.63;;;5.13;;
313;SDS011;143;51.634;7.112;2023-04-01T13:28:29;10.80;;;5.47;;
313;SDS011;143;51.634;7.112;2023-04-01T13:31:04;7.83;;;4.80;;
313;SDS011;143;51.634;7.112;2023-04-01T13:36:31;6.37;;;4.43;;
313;SDS011;143;51.634;7.112;2023-04-01T13:39:32;5.83;;;4.23;;
313;SDS011;143;51.634;7.112;2023-04-01T13:42:15;6.80;;;4.10;;
313;SDS011;143;51.634;7.112;2023-04-01T14:00:53;5.97;;;4.50;;
313;SDS011;143;51.634;7.112;2023-04-01T14:06:26;10.23;;;5.63;;
313;SDS011;143;51.634;7.112;2023-04-01T14:17:23;9.00;;;5.73;;
313;SDS011;143;51.634;7.112;2023-04-01T14:22:57;8.90;;;6.07;;
313;SDS011;143;51.634;7.112;2023-04-01T14:39:34;12.30;;;7.00;;
313;SDS011;143;51.634;7.112;2023-04-01T14:50:22;10.70;;;7.17;;
313;SDS011;143;51.634;7.112;2023-04-01T14:55:50;12.73;;;8.20;;
313;SDS011;143;51.634;7.112;2023-04-01T14:58:19;12.17;;;7.37;;
313;SDS011;143;51.634;7.112;2023-04-01T15:03:57;13.97;;;7.77;;
313;SDS011;143;51.634;7.112;2023-04-01T15:15:21;11.73;;;8.57;;
313;SDS011;143;51.634;7.112;2023-04-01T15:18:03;11.23;;;7.13;;
313;SDS011;143;51.634;7.112;2023-04-01T15:28:53;11.60;;;7.60;;
313;SDS011;143;51.634;7.112;2023-04-01T15:34:25;10.40;;;6.77;;
313;SDS011;143;51.634;7.112;2023-04-01T15:37:10;10.80;;;6.43;;
313;SDS011;143;51.634;7.112;2023-04-01T15:51:20;9.63;;;6.43;;
313;SDS011;143;51.634;7.112;2023-04-01T15:54:01;10.80;;;6.70;;
313;SDS011;143;51.634;7.112;2023-04-01T15:59:21;8.70;;;5.33;;
313;SDS011;143;51.634;7.112;2023-04-01T16:02:12;10.93;;;6.07;;
313;SDS011;143;51.634;7.112;2023-04-01T16:10:35;6.90;;;3.70;;
313;SDS011;143;51.634;7.112;2023-04-01T16:16:14;5.83;;;4.23;;
313;SDS011;143;51.634;7.112;2023-04-01T16:19:03;7.27;;;4.60;;
313;SDS011;143;51.634;7.112;2023-04-01T16:22:05;4.63;;;3.73;;
313;SDS011;143;51.634;7.112;2023-04-01T16:24:42;6.80;;;4.90;;
313;SDS011;143;51.634;7.112;2023-04-01T16:27:35;8.50;;;5.13;;
313;SDS011;143;51.634;7.112;2023-04-01T16:30:22;7.03;;;4.37;;
313;SDS011;143;51.634;7.112;2023-04-01T16:34:10;5.97;;;4.20;;
313;SDS011;143;51.634;7.112;2023-04-01T16:47:45;10.20;;;4.93;;
313;SDS011;143;51.634;7.112;2023-04-01T16:50:19;8.07;;;5.53;;
313;SDS011;143;51.634;7.112;2023-04-01T16:52:57;5.57;;;4.50;;
313;SDS011;143;51.634;7.112;2023-04-01T16:55:47;8.73;;;5.80;;
313;SDS011;143;51.634;7.112;2023-04-01T16:58:19;9.70;;;5.93;;
313;SDS011;143;51.634;7.112;2023-04-01T17:00:58;7.50;;;5.37;;
313;SDS011;143;51.634;7.112;2023-04-01T17:03:40;7.63;;;5.43;;
313;SDS011;143;51.634;7.112;2023-04-01T17:06:12;9.63;;;5.90;;
313;SDS011;143;51.634;7.112;2023-04-01T17:09:02;9.20;;;6.47;;
313;SDS011;143;51.634;7.112;2023-04-01T17:11:39;8.07;;;5.63;;
313;SDS011;143;51.634;7.112;2023-04-01T17:14:28;9.70;;;6.00;;
313;SDS011;143;51.634;7.112;2023-04-01T17:17:10;9.33;;;6.30;;
313;SDS011;143;51.634;7.112;2023-04-01T17:22:32;8.80;;;5.90;;
313;SDS011;143;51.634;7.112;2023-04-01T17:27:51;7.37;;;5.67;;
313;SDS011;143;51.634;7.112;2023-04-01T17:41:48;8.40;;;6.00;;
313;SDS011;143;51.634;7.112;2023-04-01T17:47:21;9.23;;;6.30;;
313;SDS011;143;51.634;7.112;2023-04-01T17:50:07;8.97;;;5.50;;
313;SDS011;143;51.634;7.112;2023-04-01T17:53:11;10.20;;;6.40;;
313;SDS011;143;51.634;7.112;2023-04-01T18:00:51;6.60;;;5.00;;
313;SDS011;143;51.634;7.112;2023-04-01T18:09:35;7.50;;;5.33;;
313;SDS011;143;51.634;7.112;2023-04-01T18:18:42;5.90;;;4.40;;
313;SDS011;143;51.634;7.112;2023-04-01T18:24:13;5.73;;;4.43;;
313;SDS011;143;51.634;7.112;2023-04-01T18:32:12;6.57;;;4.10;;
313;SDS011;143;51.634;7.112;2023-04-01T18:34:47;7.00;;;4.83;;
313;SDS011;143;51.634;7.112;2023-04-01T18:37:39;4.60;;;3.50;;
313;SDS011;143;51.634;7.112;2023-04-01T18:45:47;13.80;;;9.63;;
313;SDS011;143;51.634;7.112;2023-04-01T18:57:19;6.53;;;2.87;;
313;SDS011;143;51.634;7.112;2023-04-01T19:02:43;2.17;;;1.87;;
313;SDS011;143;51.634;7.112;2023-04-01T19:05:29;3.67;;;2.40;;
313;SDS011;143;51.634;7.112;2023-04-01T19:10:55;2.90;;;2.00;;
313;SDS011;143;51.634;7.112;2023-04-01T19:13:46;5.60;;;2.20;;
313;SDS011;143;51.634;7.112;2023-04-01T19:21:29;2.50;;;2.30;;
313;SDS011;143;51.634;7.112;2023-04-01T19:24:20;4.93;;;3.33;;
313;SDS011;143;51.634;7.112;2023-04-01T19:35:35;3.37;;;2.30;;
313;SDS011;143;51.634;7.112;2023-04-01T19:38:11;2.90;;;2.70;;
313;SDS011;143;51.634;7.112;2023-04-01T19:46:36;3.70;;;3.13;;
313;SDS011;143;51.634;7.112;2023-04-01T19:49:11;3.20;;;2.70;;
313;SDS011;143;51.634;7.112;2023-04-01T20:03:05;2.40;;;2.20;;
313;SDS011;143;51.634;7.112;2023-04-01T20:05:51;3.07;;;2.60;;
313;SDS011;143;51.634;7.112;2023-04-01T20:11:34;2.50;;;2.30;;
313;SDS011;143;51.634;7.112;2023-04-01T20:20:00;5.40;;;3.27;;
313;SDS011;143;51.634;7.112;2023-04-01T20:25:15;4.00;;;3.10;;
313;SDS011;143;51.634;7.112;2023-04-01T20:28:11;4.53;;;3.00;;
313;SDS011;143;51.634;7.112;2023-04-01T20:39:10;4.70;;;2.90;;
313;SDS011;143;51.634;7.112;2023-04-01T20:44:58;5.43;;;3.33;;
313;SDS011;143;51.634;7.112;2023-04-01T20:50:28;3.70;;;2.80;;
313;SDS011;143;51.634;7.112;2023-04-01T21:04:08;2.77;;;2.60;;
313;SDS011;143;51.634;7.112;2023-04-01T21:06:44;3.10;;;2.90;;
313;SDS011;143;51.634;7.112;2023-04-01T21:25:47;5.30;;;3.07;;
313;SDS011;143;51.634;7.112;2023-04-01T21:28:34;2.97;;;2.37;;
313;SDS011;143;51.634;7.112;2023-04-01T21:31:19;3.33;;;2.50;;
313;SDS011;143;51.634;7.112;2023-04-01T21:34:25;3.87;;;3.30;;
313;SDS011;143;51.634;7.112;2023-04-01T21:48:32;3.87;;;3.17;;
313;SDS011;143;51.634;7.112;2023-04-01T22:13:20;3.43;;;3.23;;
313;SDS011;143;51.634;7.112;2023-04-01T22:18:30;2.90;;;2.53;;
313;SDS011;143;51.634;7.112;2023-04-01T22:21:05;3.10;;;2.90;;
313;SDS011;143;51.634;7.112;2023-04-01T22:26:30;3.80;;;3.57;;
313;SDS011;143;51.634;7.112;2023-04-01T22:31:52;4.27;;;3.37;;
313;SDS011;143;51.634;7.112;2023-04-01T22:50:50;4.70;;;3.63;;
313;SDS011;143;51.634;7.112;2023-04-01T22:56:05;4.47;;;3.53;;
313;SDS011;143;51.634;7.112;2023-04-01T22:58:38;6.90;;;3.80;;
313;SDS011;143;51.634;7.112;2023-04-01T23:01:12;5.43;;;3.50;;
313;SDS011;143;51.634;7.112;2023-04-01T23:03:46;3.67;;;3.00;;
313;SDS011;143;51.634;7.112;2023-04-01T23:06:23;3.50;;;3.03;;
313;SDS011;143;51.634;7.112;2023-04-01T23:11:56;3.43;;;3.27;;
313;SDS011;143;51.634;7.112;2023-04-01T23:25:26;4.47;;;3.00;;
313;SDS011;143;51.634;7.112;2023-04-01T23:35:59;3.50;;;2.73;;
313;SDS011;143;51.634;7.112;2023-04-01T23:38:40;3.20;;;3.00;;
313;SDS011;143;51.634;7.112;2023-04-01T23:41:07;4.30;;;3.17;;
313;SDS011;143;51.634;7.112;2023-04-01T23:43:42;3.07;;;2.90;;
313;SDS011;143;51.634;7.112;2023-04-01T23:46:10;2.90;;;2.63;;
313;SDS011;143;51.634;7.112;2023-04-01T23:48:41;3.60;;;2.70;;
313;SDS011;143;51.634;7.112;2023-04-01T23:51:14;4.40;;;3.03;;
313;SDS011;143;51.634;7.112;2023-04-01T23:53:44;3.43;;;3.20;;
313;SDS011;143;51.634;7.112;2023-04-01T23:56:11;2.83;;;2.73;;
